sensor_id;sensor_type;location;lat;lon;timestamp;pressure;altitude;pressure_sealevel;temperature;humidity
26807;BME280;14380;49.910;6.792;2022-10-16T00:00:33;98487.50;;;15.04;100.00
26807;BME280;14380;49.910;6.792;2022-10-16T00:03:00;98485.31;;;14.98;100.00
26807;BME280;14380;49.910;6.792;2022-10-16T00:05:27;98485.81;;;15.03;100.00
26807;BME280;14380;49.910;6.792;2022-10-16T00:07:54;98484.47;;;14.86;100.00
26807;BME280;14380;49.910;6.792;2022-10-16T00:10:20;98485.53;;;14.95;100.00
26807;BME280;14380;49.910;6.792;2022-10-16T00:12:47;98486.31;;;14.61;100.00
26807;BME280;14380;49.910;6.792;2022-10-16T00:15:14;98481.06;;;14.84;100.00
26807;BME280;14380;49.910;6.792;2022-10-16T00:17:42;98483.59;;;14.85;100.00
26807;BME280;14380;49.910;6.792;2022-10-16T00:20:09;98481.19;;;14.71;100.00
26807;BME280;14380;49.910;6.792;2022-10-16T00:22:36;98469.25;;;14.52;100.00
26807;BME280;14380;49.910;6.792;2022-10-16T00:25:03;98468.44;;;14.63;100.00
26807;BME280;14380;49.910;6.792;2022-10-16T00:27:29;98473.16;;;14.60;100.00
26807;BME280;14380;49.910;6.792;2022-10-16T00:29:56;98480.03;;;14.62;100.00
26807;BME280;14380;49.910;6.792;2022-10-16T00:32:23;98487.97;;;14.75;100.00
26807;BME280;14380;49.910;6.792;2022-10-16T00:34:51;98488.91;;;14.74;100.00
26807;BME280;14380;49.910;6.792;2022-10-16T00:37:19;98500.16;;;14.78;100.00
26807;BME280;14380;49.910;6.792;2022-10-16T00:39:46;98499.53;;;14.85;100.00
26807;BME280;14380;49.910;6.792;2022-10-16T00:42:14;98498.22;;;14.80;100.00
26807;BME280;14380;49.910;6.792;2022-10-16T00:44:45;98483.84;;;14.71;100.00
26807;BME280;14380;49.910;6.792;2022-10-16T00:47:18;98468.28;;;14.89;100.00
26807;BME280;14380;49.910;6.792;2022-10-16T00:49:46;98472.84;;;14.76;100.00
26807;BME280;14380;49.910;6.792;2022-10-16T00:52:16;98486.38;;;14.84;100.00
26807;BME280;14380;49.910;6.792;2022-10-16T00:54:44;98497.50;;;14.78;100.00
26807;BME280;14380;49.910;6.792;2022-10-16T00:57:11;98501.50;;;15.06;100.00
26807;BME280;14380;49.910;6.792;2022-10-16T00:59:40;98508.88;;;14.91;100.00
26807;BME280;14380;49.910;6.792;2022-10-16T01:02:11;98515.28;;;15.00;100.00
26807;BME280;14380;49.910;6.792;2022-10-16T01:04:40;98515.16;;;15.01;100.00
26807;BME280;14380;49.910;6.792;2022-10-16T01:07:12;98515.63;;;15.07;100.00
26807;BME280;14380;49.910;6.792;2022-10-16T01:09:49;98514.81;;;15.06;100.00
26807;BME280;14380;49.910;6.792;2022-10-16T01:12:23;98512.75;;;15.10;100.00
26807;BME280;14380;49.910;6.792;2022-10-16T01:14:54;98511.44;;;15.15;100.00
26807;BME280;14380;49.910;6.792;2022-10-16T01:17:28;98522.66;;;15.08;100.00
26807;BME280;14380;49.910;6.792;2022-10-16T01:20:08;98520.00;;;14.96;100.00
26807;BME280;14380;49.910;6.792;2022-10-16T01:22:45;98520.72;;;15.10;100.00
26807;BME280;14380;49.910;6.792;2022-10-16T01:25:25;98528.09;;;15.29;100.00
26807;BME280;14380;49.910;6.792;2022-10-16T01:28:00;98518.31;;;15.29;100.00
26807;BME280;14380;49.910;6.792;2022-10-16T01:30:30;98524.38;;;15.20;100.00
26807;BME280;14380;49.910;6.792;2022-10-16T01:33:02;98506.94;;;15.16;100.00
26807;BME280;14380;49.910;6.792;2022-10-16T01:35:32;98512.63;;;15.34;100.00
26807;BME280;14380;49.910;6.792;2022-10-16T01:38:03;98509.72;;;15.03;100.00
26807;BME280;14380;49.910;6.792;2022-10-16T01:40:33;98517.34;;;15.19;100.00
26807;BME280;14380;49.910;6.792;2022-10-16T01:43:05;98526.06;;;15.32;100.00
26807;BME280;14380;49.910;6.792;2022-10-16T01:45:34;98511.56;;;15.25;100.00
26807;BME280;14380;49.910;6.792;2022-10-16T01:48:04;98513.59;;;15.33;100.00
26807;BME280;14380;49.910;6.792;2022-10-16T01:50:36;98520.25;;;15.27;100.00
26807;BME280;14380;49.910;6.792;2022-10-16T01:53:05;98526.78;;;15.35;100.00
26807;BME280;14380;49.910;6.792;2022-10-16T01:55:36;98520.59;;;15.34;100.00
26807;BME280;14380;49.910;6.792;2022-10-16T01:58:07;98517.47;;;15.40;100.00
26807;BME280;14380;49.910;6.792;2022-10-16T02:00:37;98516.38;;;15.31;100.00
26807;BME280;14380;49.910;6.792;2022-10-16T02:03:05;98526.28;;;15.07;100.00
26807;BME280;14380;49.910;6.792;2022-10-16T02:05:38;98539.94;;;15.25;100.00
26807;BME280;14380;49.910;6.792;2022-10-16T02:08:07;98548.19;;;15.33;100.00
26807;BME280;14380;49.910;6.792;2022-10-16T02:10:35;98540.81;;;15.25;100.00
26807;BME280;14380;49.910;6.792;2022-10-16T02:13:06;98517.72;;;15.37;100.00
26807;BME280;14380;49.910;6.792;2022-10-16T02:15:36;98509.13;;;15.11;100.00
26807;BME280;14380;49.910;6.792;2022-10-16T02:18:03;98504.88;;;15.31;100.00
26807;BME280;14380;49.910;6.792;2022-10-16T02:20:36;98511.06;;;15.31;100.00
26807;BME280;14380;49.910;6.792;2022-10-16T02:23:08;98507.22;;;15.36;100.00
26807;BME280;14380;49.910;6.792;2022-10-16T02:25:41;98504.78;;;15.21;100.00
26807;BME280;14380;49.910;6.792;2022-10-16T02:28:16;98512.16;;;15.06;100.00
26807;BME280;14380;49.910;6.792;2022-10-16T02:30:47;98515.66;;;15.18;100.00
26807;BME280;14380;49.910;6.792;2022-10-16T02:33:16;98522.69;;;15.30;100.00
26807;BME280;14380;49.910;6.792;2022-10-16T02:35:45;98526.75;;;14.89;100.00
26807;BME280;14380;49.910;6.792;2022-10-16T02:38:13;98525.53;;;15.05;100.00
26807;BME280;14380;49.910;6.792;2022-10-16T02:40:41;98517.09;;;15.11;100.00
26807;BME280;14380;49.910;6.792;2022-10-16T02:43:08;98521.84;;;15.19;100.00
26807;BME280;14380;49.910;6.792;2022-10-16T02:45:37;98534.59;;;14.91;100.00
26807;BME280;14380;49.910;6.792;2022-10-16T02:48:04;98517.81;;;14.90;100.00
26807;BME280;14380;49.910;6.792;2022-10-16T02:50:31;98518.31;;;14.95;100.00
26807;BME280;14380;49.910;6.792;2022-10-16T02:52:57;98524.00;;;15.02;100.00
26807;BME280;14380;49.910;6.792;2022-10-16T02:55:24;98528.22;;;14.93;100.00
26807;BME280;14380;49.910;6.792;2022-10-16T02:57:51;98529.91;;;15.06;100.00
26807;BME280;14380;49.910;6.792;2022-10-16T03:00:18;98531.34;;;15.10;100.00
26807;BME280;14380;49.910;6.792;2022-10-16T03:02:46;98541.16;;;15.09;100.00
26807;BME280;14380;49.910;6.792;2022-10-16T03:05:13;98536.28;;;14.92;100.00
26807;BME280;14380;49.910;6.792;2022-10-16T03:07:40;98522.81;;;15.18;100.00
26807;BME280;14380;49.910;6.792;2022-10-16T03:10:07;98529.06;;;15.05;100.00
26807;BME280;14380;49.910;6.792;2022-10-16T03:12:34;98524.84;;;15.14;100.00
26807;BME280;14380;49.910;6.792;2022-10-16T03:15:01;98519.03;;;15.20;100.00
26807;BME280;14380;49.910;6.792;2022-10-16T03:17:27;98510.94;;;15.10;100.00
26807;BME280;14380;49.910;6.792;2022-10-16T03:19:55;98512.41;;;15.14;100.00
26807;BME280;14380;49.910;6.792;2022-10-16T03:22:22;98514.19;;;15.14;100.00
26807;BME280;14380;49.910;6.792;2022-10-16T03:24:48;98517.66;;;14.80;100.00
26807;BME280;14380;49.910;6.792;2022-10-16T03:27:16;98518.41;;;14.94;100.00
26807;BME280;14380;49.910;6.792;2022-10-16T03:29:43;98533.94;;;15.23;100.00
26807;BME280;14380;49.910;6.792;2022-10-16T03:32:09;98526.44;;;15.16;100.00
26807;BME280;14380;49.910;6.792;2022-10-16T03:34:36;98511.94;;;15.21;100.00
26807;BME280;14380;49.910;6.792;2022-10-16T03:37:04;98531.22;;;15.00;100.00
26807;BME280;14380;49.910;6.792;2022-10-16T03:39:31;98542.25;;;15.18;100.00
26807;BME280;14380;49.910;6.792;2022-10-16T03:41:57;98528.25;;;15.27;100.00
26807;BME280;14380;49.910;6.792;2022-10-16T03:44:24;98533.56;;;15.27;100.00
26807;BME280;14380;49.910;6.792;2022-10-16T03:46:50;98538.25;;;15.24;100.00
26807;BME280;14380;49.910;6.792;2022-10-16T03:49:17;98545.75;;;15.30;100.00
26807;BME280;14380;49.910;6.792;2022-10-16T03:51:44;98556.50;;;15.17;100.00
26807;BME280;14380;49.910;6.792;2022-10-16T03:54:12;98555.22;;;15.23;100.00
26807;BME280;14380;49.910;6.792;2022-10-16T03:56:39;98558.47;;;15.26;100.00
26807;BME280;14380;49.910;6.792;2022-10-16T03:59:05;98560.75;;;15.31;100.00
26807;BME280;14380;49.910;6.792;2022-10-16T04:01:32;98564.03;;;15.35;100.00
26807;BME280;14380;49.910;6.792;2022-10-16T04:03:58;98564.03;;;15.23;100.00
26807;BME280;14380;49.910;6.792;2022-10-16T04:06:25;98564.25;;;15.20;100.00
26807;BME280;14380;49.910;6.792;2022-10-16T04:08:52;98570.50;;;15.08;100.00
26807;BME280;14380;49.910;6.792;2022-10-16T04:11:20;98570.44;;;15.21;100.00
26807;BME280;14380;49.910;6.792;2022-10-16T04:13:46;98559.19;;;15.17;100.00
26807;BME280;14380;49.910;6.792;2022-10-16T04:16:13;98545.16;;;15.15;100.00
26807;BME280;14380;49.910;6.792;2022-10-16T04:18:39;98552.03;;;15.29;100.00
26807;BME280;14380;49.910;6.792;2022-10-16T04:21:06;98562.19;;;15.24;100.00
26807;BME280;14380;49.910;6.792;2022-10-16T04:23:33;98563.28;;;15.21;100.00
26807;BME280;14380;49.910;6.792;2022-10-16T04:26:00;98561.72;;;15.19;100.00
26807;BME280;14380;49.910;6.792;2022-10-16T04:28:28;98562.94;;;15.14;100.00
26807;BME280;14380;49.910;6.792;2022-10-16T04:30:56;98570.56;;;15.42;100.00
26807;BME280;14380;49.910;6.792;2022-10-16T04:33:22;98566.09;;;15.20;100.00
26807;BME280;14380;49.910;6.792;2022-10-16T04:35:56;98565.47;;;15.27;100.00
26807;BME280;14380;49.910;6.792;2022-10-16T04:38:23;98558.09;;;15.08;100.00
26807;BME280;14380;49.910;6.792;2022-10-16T04:40:49;98560.03;;;15.18;100.00
26807;BME280;14380;49.910;6.792;2022-10-16T04:43:16;98559.53;;;15.12;100.00
26807;BME280;14380;49.910;6.792;2022-10-16T04:45:44;98569.56;;;15.09;100.00
26807;BME280;14380;49.910;6.792;2022-10-16T04:48:10;98582.63;;;15.00;100.00
26807;BME280;14380;49.910;6.792;2022-10-16T04:50:37;98591.56;;;15.11;100.00
26807;BME280;14380;49.910;6.792;2022-10-16T04:53:04;98589.75;;;15.11;100.00
26807;BME280;14380;49.910;6.792;2022-10-16T04:55:30;98595.06;;;15.11;100.00
26807;BME280;14380;49.910;6.792;2022-10-16T04:57:57;98599.53;;;15.11;100.00
26807;BME280;14380;49.910;6.792;2022-10-16T05:00:24;98609.59;;;15.19;100.00
26807;BME280;14380;49.910;6.792;2022-10-16T05:02:52;98607.50;;;14.99;100.00
26807;BME280;14380;49.910;6.792;2022-10-16T05:05:19;98611.75;;;15.13;100.00
26807;BME280;14380;49.910;6.792;2022-10-16T05:07:46;98604.84;;;15.11;100.00
26807;BME280;14380;49.910;6.792;2022-10-16T05:10:13;98603.56;;;15.16;100.00
26807;BME280;14380;49.910;6.792;2022-10-16T05:12:39;98598.47;;;15.25;100.00
26807;BME280;14380;49.910;6.792;2022-10-16T05:15:07;98604.28;;;15.19;100.00
26807;BME280;14380;49.910;6.792;2022-10-16T05:17:34;98608.13;;;15.14;100.00
26807;BME280;14380;49.910;6.792;2022-10-16T05:20:02;98615.06;;;15.28;100.00
26807;BME280;14380;49.910;6.792;2022-10-16T05:22:29;98613.56;;;15.13;100.00
26807;BME280;14380;49.910;6.792;2022-10-16T05:24:56;98607.50;;;14.99;100.00
26807;BME280;14380;49.910;6.792;2022-10-16T05:27:23;98597.34;;;15.05;100.00
26807;BME280;14380;49.910;6.792;2022-10-16T05:29:49;98603.63;;;15.04;100.00
26807;BME280;14380;49.910;6.792;2022-10-16T05:32:18;98611.22;;;14.97;100.00
26807;BME280;14380;49.910;6.792;2022-10-16T05:34:45;98609.19;;;15.00;100.00
26807;BME280;14380;49.910;6.792;2022-10-16T05:37:13;98618.28;;;15.09;100.00
26807;BME280;14380;49.910;6.792;2022-10-16T05:39:39;98618.84;;;14.90;100.00
26807;BME280;14380;49.910;6.792;2022-10-16T05:42:06;98618.84;;;15.01;100.00
26807;BME280;14380;49.910;6.792;2022-10-16T05:44:33;98621.63;;;15.00;100.00
26807;BME280;14380;49.910;6.792;2022-10-16T05:46:59;98625.53;;;15.07;100.00
26807;BME280;14380;49.910;6.792;2022-10-16T05:49:26;98627.94;;;15.10;100.00
26807;BME280;14380;49.910;6.792;2022-10-16T05:51:53;98625.72;;;14.93;100.00
26807;BME280;14380;49.910;6.792;2022-10-16T05:54:21;98625.03;;;15.02;100.00
26807;BME280;14380;49.910;6.792;2022-10-16T05:56:47;98624.28;;;15.00;100.00
26807;BME280;14380;49.910;6.792;2022-10-16T05:59:14;98629.00;;;14.96;100.00
26807;BME280;14380;49.910;6.792;2022-10-16T06:01:40;98637.34;;;15.03;100.00
26807;BME280;14380;49.910;6.792;2022-10-16T06:04:08;98627.63;;;14.91;100.00
26807;BME280;14380;49.910;6.792;2022-10-16T06:06:34;98629.47;;;14.90;100.00
26807;BME280;14380;49.910;6.792;2022-10-16T06:09:02;98633.19;;;14.87;100.00
26807;BME280;14380;49.910;6.792;2022-10-16T06:11:32;98640.63;;;15.07;100.00
26807;BME280;14380;49.910;6.792;2022-10-16T06:14:00;98637.00;;;15.08;100.00
26807;BME280;14380;49.910;6.792;2022-10-16T06:16:28;98635.88;;;14.99;100.00
26807;BME280;14380;49.910;6.792;2022-10-16T06:18:55;98637.31;;;14.92;100.00
26807;BME280;14380;49.910;6.792;2022-10-16T06:21:25;98638.19;;;15.04;100.00
26807;BME280;14380;49.910;6.792;2022-10-16T06:23:54;98633.22;;;14.99;100.00
26807;BME280;14380;49.910;6.792;2022-10-16T06:26:22;98642.03;;;14.88;100.00
26807;BME280;14380;49.910;6.792;2022-10-16T06:28:50;98638.44;;;15.00;100.00
26807;BME280;14380;49.910;6.792;2022-10-16T06:31:17;98644.38;;;15.04;100.00
26807;BME280;14380;49.910;6.792;2022-10-16T06:33:44;98655.75;;;15.06;100.00
26807;BME280;14380;49.910;6.792;2022-10-16T06:36:13;98658.50;;;15.05;100.00
26807;BME280;14380;49.910;6.792;2022-10-16T06:38:40;98666.22;;;14.96;100.00
26807;BME280;14380;49.910;6.792;2022-10-16T06:41:08;98675.53;;;15.02;100.00
26807;BME280;14380;49.910;6.792;2022-10-16T06:43:36;98686.56;;;15.09;100.00
26807;BME280;14380;49.910;6.792;2022-10-16T06:46:06;98692.75;;;15.09;100.00
26807;BME280;14380;49.910;6.792;2022-10-16T06:48:34;98695.03;;;15.14;100.00
26807;BME280;14380;49.910;6.792;2022-10-16T06:51:02;98682.63;;;15.26;100.00
26807;BME280;14380;49.910;6.792;2022-10-16T06:53:31;98693.75;;;15.31;100.00
26807;BME280;14380;49.910;6.792;2022-10-16T06:56:06;98694.84;;;15.28;100.00
26807;BME280;14380;49.910;6.792;2022-10-16T06:58:33;98697.97;;;15.22;100.00
26807;BME280;14380;49.910;6.792;2022-10-16T07:01:00;98704.44;;;15.42;100.00
26807;BME280;14380;49.910;6.792;2022-10-16T07:03:28;98699.25;;;15.41;100.00
26807;BME280;14380;49.910;6.792;2022-10-16T07:05:54;98707.34;;;15.51;100.00
26807;BME280;14380;49.910;6.792;2022-10-16T07:08:21;98713.69;;;15.61;100.00
26807;BME280;14380;49.910;6.792;2022-10-16T07:10:48;98722.72;;;15.58;100.00
26807;BME280;14380;49.910;6.792;2022-10-16T07:13:14;98727.91;;;15.49;100.00
26807;BME280;14380;49.910;6.792;2022-10-16T07:15:41;98738.94;;;15.55;100.00
26807;BME280;14380;49.910;6.792;2022-10-16T07:18:07;98741.41;;;15.34;100.00
26807;BME280;14380;49.910;6.792;2022-10-16T07:20:35;98748.09;;;15.51;100.00
26807;BME280;14380;49.910;6.792;2022-10-16T07:23:02;98742.66;;;15.41;100.00
26807;BME280;14380;49.910;6.792;2022-10-16T07:25:29;98746.06;;;15.55;100.00
26807;BME280;14380;49.910;6.792;2022-10-16T07:27:55;98746.50;;;15.37;100.00
26807;BME280;14380;49.910;6.792;2022-10-16T07:30:22;98763.00;;;15.54;100.00
26807;BME280;14380;49.910;6.792;2022-10-16T07:32:49;98763.84;;;15.54;100.00
26807;BME280;14380;49.910;6.792;2022-10-16T07:35:16;98768.94;;;15.57;100.00
26807;BME280;14380;49.910;6.792;2022-10-16T07:37:45;98772.25;;;15.84;100.00
26807;BME280;14380;49.910;6.792;2022-10-16T07:40:12;98777.75;;;15.94;100.00
26807;BME280;14380;49.910;6.792;2022-10-16T07:42:39;98771.91;;;15.77;100.00
26807;BME280;14380;49.910;6.792;2022-10-16T07:45:06;98775.41;;;15.66;100.00
26807;BME280;14380;49.910;6.792;2022-10-16T07:47:33;98787.66;;;15.91;100.00
26807;BME280;14380;49.910;6.792;2022-10-16T07:49:59;98785.88;;;16.15;100.00
26807;BME280;14380;49.910;6.792;2022-10-16T07:52:26;98785.41;;;15.98;100.00
26807;BME280;14380;49.910;6.792;2022-10-16T07:54:54;98790.84;;;15.97;100.00
26807;BME280;14380;49.910;6.792;2022-10-16T07:57:21;98796.53;;;15.92;100.00
26807;BME280;14380;49.910;6.792;2022-10-16T07:59:47;98797.63;;;15.89;100.00
26807;BME280;14380;49.910;6.792;2022-10-16T08:02:14;98791.13;;;16.16;100.00
26807;BME280;14380;49.910;6.792;2022-10-16T08:04:40;98803.81;;;16.13;100.00
26807;BME280;14380;49.910;6.792;2022-10-16T08:07:07;98807.34;;;16.13;100.00
26807;BME280;14380;49.910;6.792;2022-10-16T08:09:34;98810.81;;;16.14;100.00
26807;BME280;14380;49.910;6.792;2022-10-16T08:12:03;98821.94;;;15.96;100.00
26807;BME280;14380;49.910;6.792;2022-10-16T08:14:30;98822.31;;;16.03;100.00
26807;BME280;14380;49.910;6.792;2022-10-16T08:16:57;98819.66;;;16.03;100.00
26807;BME280;14380;49.910;6.792;2022-10-16T08:19:23;98812.53;;;16.03;100.00
26807;BME280;14380;49.910;6.792;2022-10-16T08:21:50;98821.34;;;16.04;100.00
26807;BME280;14380;49.910;6.792;2022-10-16T08:24:16;98813.88;;;16.09;100.00
26807;BME280;14380;49.910;6.792;2022-10-16T08:26:43;98831.16;;;16.15;100.00
26807;BME280;14380;49.910;6.792;2022-10-16T08:29:13;98840.81;;;15.93;100.00
26807;BME280;14380;49.910;6.792;2022-10-16T08:31:39;98833.50;;;15.84;100.00
26807;BME280;14380;49.910;6.792;2022-10-16T08:34:06;98837.22;;;16.05;100.00
26807;BME280;14380;49.910;6.792;2022-10-16T08:36:33;98847.25;;;16.02;100.00
26807;BME280;14380;49.910;6.792;2022-10-16T08:39:00;98839.78;;;16.18;100.00
26807;BME280;14380;49.910;6.792;2022-10-16T08:41:46;98853.75;;;16.45;100.00
26807;BME280;14380;49.910;6.792;2022-10-16T08:44:30;98852.41;;;16.50;100.00
26807;BME280;14380;49.910;6.792;2022-10-16T08:47:09;98851.31;;;16.64;100.00
26807;BME280;14380;49.910;6.792;2022-10-16T08:49:41;98850.09;;;16.69;100.00
26807;BME280;14380;49.910;6.792;2022-10-16T08:52:11;98868.41;;;16.73;100.00
26807;BME280;14380;49.910;6.792;2022-10-16T08:54:42;98874.84;;;16.82;100.00
26807;BME280;14380;49.910;6.792;2022-10-16T08:57:12;98868.78;;;16.69;100.00
26807;BME280;14380;49.910;6.792;2022-10-16T08:59:41;98874.47;;;16.64;100.00
26807;BME280;14380;49.910;6.792;2022-10-16T09:02:23;98878.22;;;16.61;100.00
26807;BME280;14380;49.910;6.792;2022-10-16T09:05:02;98873.84;;;16.60;100.00
26807;BME280;14380;49.910;6.792;2022-10-16T09:07:41;98881.97;;;16.59;100.00
26807;BME280;14380;49.910;6.792;2022-10-16T09:10:19;98870.72;;;16.44;100.00
26807;BME280;14380;49.910;6.792;2022-10-16T09:12:54;98869.75;;;16.68;100.00
26807;BME280;14380;49.910;6.792;2022-10-16T09:15:29;98869.50;;;16.82;100.00
26807;BME280;14380;49.910;6.792;2022-10-16T09:18:01;98864.53;;;17.12;100.00
26807;BME280;14380;49.910;6.792;2022-10-16T09:20:40;98873.84;;;17.29;100.00
26807;BME280;14380;49.910;6.792;2022-10-16T09:23:14;98870.44;;;17.27;100.00
26807;BME280;14380;49.910;6.792;2022-10-16T09:25:43;98878.63;;;17.46;100.00
26807;BME280;14380;49.910;6.792;2022-10-16T09:28:10;98888.31;;;17.47;100.00
26807;BME280;14380;49.910;6.792;2022-10-16T09:30:39;98886.34;;;17.61;100.00
26807;BME280;14380;49.910;6.792;2022-10-16T09:33:07;98891.69;;;17.61;100.00
26807;BME280;14380;49.910;6.792;2022-10-16T09:35:37;98900.66;;;18.04;100.00
26807;BME280;14380;49.910;6.792;2022-10-16T09:38:06;98890.09;;;18.02;100.00
26807;BME280;14380;49.910;6.792;2022-10-16T09:40:34;98888.41;;;17.90;100.00
26807;BME280;14380;49.910;6.792;2022-10-16T09:43:12;98883.09;;;18.11;100.00
26807;BME280;14380;49.910;6.792;2022-10-16T09:45:53;98888.44;;;18.53;100.00
26807;BME280;14380;49.910;6.792;2022-10-16T09:48:20;98876.69;;;18.45;100.00
26807;BME280;14380;49.910;6.792;2022-10-16T09:50:55;98865.44;;;18.72;100.00
26807;BME280;14380;49.910;6.792;2022-10-16T09:53:23;98864.47;;;18.42;100.00
26807;BME280;14380;49.910;6.792;2022-10-16T09:55:50;98861.81;;;18.52;100.00
26807;BME280;14380;49.910;6.792;2022-10-16T09:58:17;98858.28;;;17.99;100.00
26807;BME280;14380;49.910;6.792;2022-10-16T10:00:51;98851.03;;;18.11;100.00
26807;BME280;14380;49.910;6.792;2022-10-16T10:03:36;98865.31;;;17.67;100.00
26807;BME280;14380;49.910;6.792;2022-10-16T10:06:14;98872.53;;;17.88;100.00
26807;BME280;14380;49.910;6.792;2022-10-16T10:08:53;98875.44;;;18.18;100.00
26807;BME280;14380;49.910;6.792;2022-10-16T10:11:38;98880.59;;;17.98;100.00
26807;BME280;14380;49.910;6.792;2022-10-16T10:14:05;98887.16;;;18.05;100.00
26807;BME280;14380;49.910;6.792;2022-10-16T10:16:34;98882.63;;;17.52;100.00
26807;BME280;14380;49.910;6.792;2022-10-16T10:19:00;98886.00;;;17.87;100.00
26807;BME280;14380;49.910;6.792;2022-10-16T10:21:27;98884.22;;;17.76;100.00
26807;BME280;14380;49.910;6.792;2022-10-16T10:23:56;98892.13;;;17.77;100.00
26807;BME280;14380;49.910;6.792;2022-10-16T10:26:24;98889.75;;;18.38;100.00
26807;BME280;14380;49.910;6.792;2022-10-16T10:28:59;98880.31;;;18.65;100.00
26807;BME280;14380;49.910;6.792;2022-10-16T10:31:36;98871.91;;;18.69;100.00
26807;BME280;14380;49.910;6.792;2022-10-16T10:34:19;98866.34;;;18.51;100.00
26807;BME280;14380;49.910;6.792;2022-10-16T10:36:56;98879.03;;;18.28;100.00
26807;BME280;14380;49.910;6.792;2022-10-16T10:39:30;98873.75;;;18.17;100.00
26807;BME280;14380;49.910;6.792;2022-10-16T10:42:14;98878.75;;;17.77;100.00
26807;BME280;14380;49.910;6.792;2022-10-16T10:45:11;98886.41;;;17.71;100.00
26807;BME280;14380;49.910;6.792;2022-10-16T10:47:47;98886.91;;;18.30;100.00
26807;BME280;14380;49.910;6.792;2022-10-16T10:50:22;98892.31;;;18.70;100.00
26807;BME280;14380;49.910;6.792;2022-10-16T10:53:00;98891.81;;;18.55;100.00
26807;BME280;14380;49.910;6.792;2022-10-16T10:55:37;98902.66;;;18.54;100.00
26807;BME280;14380;49.910;6.792;2022-10-16T10:58:34;98904.56;;;18.42;100.00
26807;BME280;14380;49.910;6.792;2022-10-16T11:01:09;98892.19;;;18.41;100.00
26807;BME280;14380;49.910;6.792;2022-10-16T11:04:01;98888.56;;;18.52;100.00
26807;BME280;14380;49.910;6.792;2022-10-16T11:06:33;98882.13;;;18.95;100.00
26807;BME280;14380;49.910;6.792;2022-10-16T11:09:08;98883.13;;;18.94;100.00
26807;BME280;14380;49.910;6.792;2022-10-16T11:11:38;98880.09;;;18.78;100.00
26807;BME280;14380;49.910;6.792;2022-10-16T11:14:14;98882.66;;;18.89;100.00
26807;BME280;14380;49.910;6.792;2022-10-16T11:16:47;98881.81;;;18.57;100.00
26807;BME280;14380;49.910;6.792;2022-10-16T11:19:25;98890.19;;;18.64;100.00
26807;BME280;14380;49.910;6.792;2022-10-16T11:21:59;98886.97;;;18.70;100.00
26807;BME280;14380;49.910;6.792;2022-10-16T11:24:36;98880.84;;;18.58;100.00
26807;BME280;14380;49.910;6.792;2022-10-16T11:27:08;98885.16;;;18.81;100.00
26807;BME280;14380;49.910;6.792;2022-10-16T11:29:45;98887.50;;;18.95;100.00
26807;BME280;14380;49.910;6.792;2022-10-16T11:32:21;98900.19;;;18.41;100.00
26807;BME280;14380;49.910;6.792;2022-10-16T11:34:53;98901.94;;;18.83;100.00
26807;BME280;14380;49.910;6.792;2022-10-16T11:37:25;98902.25;;;18.90;100.00
26807;BME280;14380;49.910;6.792;2022-10-16T11:39:58;98902.38;;;18.88;100.00
26807;BME280;14380;49.910;6.792;2022-10-16T11:42:33;98904.75;;;18.81;100.00
26807;BME280;14380;49.910;6.792;2022-10-16T11:45:08;98901.66;;;18.86;100.00
26807;BME280;14380;49.910;6.792;2022-10-16T11:47:44;98909.34;;;18.69;100.00
26807;BME280;14380;49.910;6.792;2022-10-16T11:50:21;98908.06;;;18.95;100.00
26807;BME280;14380;49.910;6.792;2022-10-16T11:52:52;98904.44;;;18.96;100.00
26807;BME280;14380;49.910;6.792;2022-10-16T11:55:21;98910.75;;;18.95;100.00
26807;BME280;14380;49.910;6.792;2022-10-16T11:57:51;98913.09;;;18.88;100.00
26807;BME280;14380;49.910;6.792;2022-10-16T12:00:23;98914.44;;;18.72;100.00
26807;BME280;14380;49.910;6.792;2022-10-16T12:02:59;98916.88;;;18.85;100.00
26807;BME280;14380;49.910;6.792;2022-10-16T12:05:37;98916.13;;;18.73;100.00
26807;BME280;14380;49.910;6.792;2022-10-16T12:08:13;98909.47;;;18.68;100.00
26807;BME280;14380;49.910;6.792;2022-10-16T12:10:43;98913.31;;;18.75;100.00
26807;BME280;14380;49.910;6.792;2022-10-16T12:13:31;98908.44;;;18.90;100.00
26807;BME280;14380;49.910;6.792;2022-10-16T12:16:20;98902.50;;;19.08;100.00
26807;BME280;14380;49.910;6.792;2022-10-16T12:18:48;98897.22;;;19.37;100.00
26807;BME280;14380;49.910;6.792;2022-10-16T12:21:17;98898.84;;;19.09;100.00
26807;BME280;14380;49.910;6.792;2022-10-16T12:23:49;98892.97;;;19.35;100.00
26807;BME280;14380;49.910;6.792;2022-10-16T12:26:24;98885.97;;;19.53;100.00
26807;BME280;14380;49.910;6.792;2022-10-16T12:28:52;98879.03;;;19.51;100.00
26807;BME280;14380;49.910;6.792;2022-10-16T12:31:19;98878.91;;;19.52;100.00
26807;BME280;14380;49.910;6.792;2022-10-16T12:33:56;98872.44;;;19.74;100.00
26807;BME280;14380;49.910;6.792;2022-10-16T12:36:30;98873.84;;;19.79;100.00
26807;BME280;14380;49.910;6.792;2022-10-16T12:38:57;98872.59;;;19.93;100.00
26807;BME280;14380;49.910;6.792;2022-10-16T12:41:26;98877.81;;;19.74;100.00
26807;BME280;14380;49.910;6.792;2022-10-16T12:43:53;98877.09;;;19.63;100.00
26807;BME280;14380;49.910;6.792;2022-10-16T12:49:21;98887.13;;;19.90;100.00
26807;BME280;14380;49.910;6.792;2022-10-16T12:51:52;98883.59;;;19.80;100.00
26807;BME280;14380;49.910;6.792;2022-10-16T12:54:22;98885.25;;;19.71;100.00
26807;BME280;14380;49.910;6.792;2022-10-16T12:57:10;98887.94;;;19.61;100.00
26807;BME280;14380;49.910;6.792;2022-10-16T12:59:49;98894.56;;;19.67;100.00
26807;BME280;14380;49.910;6.792;2022-10-16T13:05:19;98887.97;;;19.81;100.00
26807;BME280;14380;49.910;6.792;2022-10-16T13:07:59;98885.72;;;19.86;100.00
26807;BME280;14380;49.910;6.792;2022-10-16T13:10:36;98890.34;;;19.64;100.00